Flight Number: AVA4124 Duration: 0:45
Departure: Polonia (WIMM) at 01:00 Distance: 124.582 Nm
Arrival: Lhok Sukon (WITL) at 01:45 Equipment: DHC6

Weather Information
Medan / Polonia, Indonesia (WIMM) 03-34N 098-41E 25M Aug 14, 2020 - 05:00 PM EDT / 2020.08.14 2100 UTC
Wind: Calm:0
Visibility: 1 mile(s):0
Sky conditions: partly cloudy Weather: mist Temperature: 77 F (25 C) Dew Point: 77 F (25 C) Relative Humidity: 100% Pressure (altimeter): 29.74 in. Hg (1007 hPa)
ob: WIMM 142100Z 00000KT 3000 BR SCT018 25/25 Q1007 NOSIG cycle: 21
Sunrise: 23:25 Sunset: 11:34 (UTC)

404 Not Found

Not Found

The requested URL /data/observations/metar/decoded/WITL.TXT was not found on this server.


Sunrise: 23:29 Sunset: 11:41 (UTC)

TAF: 404 Not Found

Not Found

The requested URL /data/forecasts/taf/stations/WITL.TXT was not found on this server.



This route has never been flown.

Route map